Terminal Aerodrome Forecast
Issued by NWS Upton, NY

Home | Current Version | Previous Version | Text Only | Print | Product List | Glossary On
Versions: 1 2 3 4 5 6 7 8 9 10 11 12 13 14 15 16 17 18 19 20 21 22 23 24 25 26 27
000
FTUS41 KOKX 230100 AAA
TAFISP
TAF AMD
KISP 230132Z 2302/2324 01022G34KT 4SM RA BR BKN015 OVC020
      WS020/03055KT
     FM230700 36020G29KT 6SM BR VCSH BKN010
     FM231400 34019G27KT 6SM BR VCSH BKN015
     FM231900 34016G24KT P6SM BKN020 OVC035=

USA.gov is the U.S. government's official web portal to all federal, state and local government web resources and services.